sensor_id;sensor_type;location;lat;lon;timestamp;temperature;humidity
25556;DHT22;13447;57.174;-2.112;2023-04-23T00:01:56;8.00;99.90
25556;DHT22;13447;57.174;-2.112;2023-04-23T00:04:24;8.10;99.90
25556;DHT22;13447;57.174;-2.112;2023-04-23T00:06:51;8.00;99.90
25556;DHT22;13447;57.174;-2.112;2023-04-23T00:09:18;8.00;99.90
25556;DHT22;13447;57.174;-2.112;2023-04-23T00:11:46;8.00;99.90
25556;DHT22;13447;57.174;-2.112;2023-04-23T00:14:13;8.00;99.90
25556;DHT22;13447;57.174;-2.112;2023-04-23T00:16:42;8.00;99.90
25556;DHT22;13447;57.174;-2.112;2023-04-23T00:19:09;8.00;99.90
25556;DHT22;13447;57.174;-2.112;2023-04-23T00:21:36;8.00;99.90
25556;DHT22;13447;57.174;-2.112;2023-04-23T00:24:02;8.00;99.90
25556;DHT22;13447;57.174;-2.112;2023-04-23T00:26:29;8.00;99.90
25556;DHT22;13447;57.174;-2.112;2023-04-23T00:28:56;7.90;99.90
25556;DHT22;13447;57.174;-2.112;2023-04-23T00:31:23;7.90;99.90
25556;DHT22;13447;57.174;-2.112;2023-04-23T00:33:52;8.00;99.90
25556;DHT22;13447;57.174;-2.112;2023-04-23T00:36:19;7.90;99.90
25556;DHT22;13447;57.174;-2.112;2023-04-23T00:38:46;7.90;99.90
25556;DHT22;13447;57.174;-2.112;2023-04-23T00:41:13;7.90;99.90
25556;DHT22;13447;57.174;-2.112;2023-04-23T00:43:40;7.90;99.90
25556;DHT22;13447;57.174;-2.112;2023-04-23T00:46:07;7.90;99.90
25556;DHT22;13447;57.174;-2.112;2023-04-23T00:48:34;7.90;99.90
25556;DHT22;13447;57.174;-2.112;2023-04-23T00:51:04;7.90;99.90
25556;DHT22;13447;57.174;-2.112;2023-04-23T00:53:32;7.90;99.90
25556;DHT22;13447;57.174;-2.112;2023-04-23T00:56:00;7.90;99.90
25556;DHT22;13447;57.174;-2.112;2023-04-23T00:58:27;7.90;99.90
25556;DHT22;13447;57.174;-2.112;2023-04-23T01:00:55;7.90;99.90
25556;DHT22;13447;57.174;-2.112;2023-04-23T01:03:23;7.90;99.90
25556;DHT22;13447;57.174;-2.112;2023-04-23T01:05:51;7.90;99.90
25556;DHT22;13447;57.174;-2.112;2023-04-23T01:08:18;7.90;99.90
25556;DHT22;13447;57.174;-2.112;2023-04-23T01:10:46;7.90;99.90
25556;DHT22;13447;57.174;-2.112;2023-04-23T01:13:13;7.90;99.90
25556;DHT22;13447;57.174;-2.112;2023-04-23T01:15:40;7.90;99.90
25556;DHT22;13447;57.174;-2.112;2023-04-23T01:18:07;7.90;99.90
25556;DHT22;13447;57.174;-2.112;2023-04-23T01:20:34;7.90;99.90
25556;DHT22;13447;57.174;-2.112;2023-04-23T01:23:01;7.90;99.90
25556;DHT22;13447;57.174;-2.112;2023-04-23T01:25:28;7.80;99.90
25556;DHT22;13447;57.174;-2.112;2023-04-23T01:27:55;7.80;99.90
25556;DHT22;13447;57.174;-2.112;2023-04-23T01:30:23;7.90;99.90
25556;DHT22;13447;57.174;-2.112;2023-04-23T01:32:50;7.80;99.90
25556;DHT22;13447;57.174;-2.112;2023-04-23T01:35:17;7.80;99.90
25556;DHT22;13447;57.174;-2.112;2023-04-23T01:37:44;7.80;99.90
25556;DHT22;13447;57.174;-2.112;2023-04-23T01:40:12;7.70;99.90
25556;DHT22;13447;57.174;-2.112;2023-04-23T01:42:38;7.70;99.90
25556;DHT22;13447;57.174;-2.112;2023-04-23T01:45:05;7.70;99.90
25556;DHT22;13447;57.174;-2.112;2023-04-23T01:47:33;7.70;99.90
25556;DHT22;13447;57.174;-2.112;2023-04-23T01:50:01;7.70;99.90
25556;DHT22;13447;57.174;-2.112;2023-04-23T01:52:28;7.60;99.90
25556;DHT22;13447;57.174;-2.112;2023-04-23T01:54:54;7.60;99.90
25556;DHT22;13447;57.174;-2.112;2023-04-23T01:57:21;7.60;99.90
25556;DHT22;13447;57.174;-2.112;2023-04-23T01:59:53;7.60;99.90
25556;DHT22;13447;57.174;-2.112;2023-04-23T02:02:23;7.60;99.90
25556;DHT22;13447;57.174;-2.112;2023-04-23T02:04:50;7.60;99.90
25556;DHT22;13447;57.174;-2.112;2023-04-23T02:07:18;7.60;99.90
25556;DHT22;13447;57.174;-2.112;2023-04-23T02:09:45;7.60;99.90
25556;DHT22;13447;57.174;-2.112;2023-04-23T02:12:12;7.60;99.90
25556;DHT22;13447;57.174;-2.112;2023-04-23T02:14:38;7.60;99.90
25556;DHT22;13447;57.174;-2.112;2023-04-23T02:17:06;7.60;99.90
25556;DHT22;13447;57.174;-2.112;2023-04-23T02:19:32;7.60;99.90
25556;DHT22;13447;57.174;-2.112;2023-04-23T02:22:01;7.60;99.90
25556;DHT22;13447;57.174;-2.112;2023-04-23T02:24:28;7.60;99.90
25556;DHT22;13447;57.174;-2.112;2023-04-23T02:26:54;7.60;99.90
25556;DHT22;13447;57.174;-2.112;2023-04-23T02:29:23;7.60;99.90
25556;DHT22;13447;57.174;-2.112;2023-04-23T02:31:50;7.60;99.90
25556;DHT22;13447;57.174;-2.112;2023-04-23T02:34:17;7.60;99.90
25556;DHT22;13447;57.174;-2.112;2023-04-23T02:36:44;7.50;99.90
25556;DHT22;13447;57.174;-2.112;2023-04-23T02:39:11;7.50;99.90
25556;DHT22;13447;57.174;-2.112;2023-04-23T02:41:38;7.50;99.90
25556;DHT22;13447;57.174;-2.112;2023-04-23T02:44:05;7.50;99.90
25556;DHT22;13447;57.174;-2.112;2023-04-23T02:46:32;7.50;99.90
25556;DHT22;13447;57.174;-2.112;2023-04-23T02:49:02;7.50;99.90
25556;DHT22;13447;57.174;-2.112;2023-04-23T02:51:28;7.50;99.90
25556;DHT22;13447;57.174;-2.112;2023-04-23T02:53:56;7.50;99.90
25556;DHT22;13447;57.174;-2.112;2023-04-23T02:56:23;7.40;99.90
25556;DHT22;13447;57.174;-2.112;2023-04-23T02:58:50;7.40;99.90
25556;DHT22;13447;57.174;-2.112;2023-04-23T03:01:17;7.40;99.90
25556;DHT22;13447;57.174;-2.112;2023-04-23T03:03:44;7.40;99.90
25556;DHT22;13447;57.174;-2.112;2023-04-23T03:06:11;7.40;99.90
25556;DHT22;13447;57.174;-2.112;2023-04-23T03:08:38;7.40;99.90
25556;DHT22;13447;57.174;-2.112;2023-04-23T03:11:04;7.40;99.90
25556;DHT22;13447;57.174;-2.112;2023-04-23T03:13:31;7.40;99.90
25556;DHT22;13447;57.174;-2.112;2023-04-23T03:15:58;7.40;99.90
25556;DHT22;13447;57.174;-2.112;2023-04-23T03:18:25;7.40;99.90
25556;DHT22;13447;57.174;-2.112;2023-04-23T03:20:52;7.40;99.90
25556;DHT22;13447;57.174;-2.112;2023-04-23T03:23:19;7.40;99.90
25556;DHT22;13447;57.174;-2.112;2023-04-23T03:25:46;7.40;99.90
25556;DHT22;13447;57.174;-2.112;2023-04-23T03:28:12;7.40;99.90
25556;DHT22;13447;57.174;-2.112;2023-04-23T03:30:39;7.40;99.90
25556;DHT22;13447;57.174;-2.112;2023-04-23T03:33:06;7.50;99.90
25556;DHT22;13447;57.174;-2.112;2023-04-23T03:35:33;7.40;99.90
25556;DHT22;13447;57.174;-2.112;2023-04-23T03:37:59;7.50;99.90
25556;DHT22;13447;57.174;-2.112;2023-04-23T03:40:26;7.50;99.90
25556;DHT22;13447;57.174;-2.112;2023-04-23T03:42:53;7.50;99.90
25556;DHT22;13447;57.174;-2.112;2023-04-23T03:45:20;7.50;99.90
25556;DHT22;13447;57.174;-2.112;2023-04-23T03:47:47;7.50;99.90
25556;DHT22;13447;57.174;-2.112;2023-04-23T03:50:13;7.50;99.90
25556;DHT22;13447;57.174;-2.112;2023-04-23T03:52:40;7.50;99.90
25556;DHT22;13447;57.174;-2.112;2023-04-23T03:55:07;7.40;99.90
25556;DHT22;13447;57.174;-2.112;2023-04-23T03:57:35;7.50;99.90
25556;DHT22;13447;57.174;-2.112;2023-04-23T04:00:03;7.40;99.90
25556;DHT22;13447;57.174;-2.112;2023-04-23T04:02:30;7.40;99.90
25556;DHT22;13447;57.174;-2.112;2023-04-23T04:04:57;7.40;99.90
25556;DHT22;13447;57.174;-2.112;2023-04-23T04:07:23;7.40;99.90
25556;DHT22;13447;57.174;-2.112;2023-04-23T04:09:51;7.50;99.90
25556;DHT22;13447;57.174;-2.112;2023-04-23T04:12:18;7.40;99.90
25556;DHT22;13447;57.174;-2.112;2023-04-23T04:14:44;7.50;99.90
25556;DHT22;13447;57.174;-2.112;2023-04-23T04:17:11;7.50;99.90
25556;DHT22;13447;57.174;-2.112;2023-04-23T04:19:41;7.40;99.90
25556;DHT22;13447;57.174;-2.112;2023-04-23T04:22:08;7.40;99.90
25556;DHT22;13447;57.174;-2.112;2023-04-23T04:24:35;7.40;99.90
25556;DHT22;13447;57.174;-2.112;2023-04-23T04:27:03;7.40;99.90
25556;DHT22;13447;57.174;-2.112;2023-04-23T04:29:30;7.50;99.90
25556;DHT22;13447;57.174;-2.112;2023-04-23T04:31:57;7.50;99.90
25556;DHT22;13447;57.174;-2.112;2023-04-23T04:34:24;7.50;99.90
25556;DHT22;13447;57.174;-2.112;2023-04-23T04:36:51;7.50;99.90
25556;DHT22;13447;57.174;-2.112;2023-04-23T04:39:19;7.50;99.90
25556;DHT22;13447;57.174;-2.112;2023-04-23T04:41:46;7.60;99.90
25556;DHT22;13447;57.174;-2.112;2023-04-23T04:44:13;7.60;99.90
25556;DHT22;13447;57.174;-2.112;2023-04-23T04:46:42;7.50;99.90
25556;DHT22;13447;57.174;-2.112;2023-04-23T04:49:09;7.50;99.90
25556;DHT22;13447;57.174;-2.112;2023-04-23T04:51:36;7.60;99.90
25556;DHT22;13447;57.174;-2.112;2023-04-23T04:54:03;7.60;99.90
25556;DHT22;13447;57.174;-2.112;2023-04-23T04:56:30;7.60;99.90
25556;DHT22;13447;57.174;-2.112;2023-04-23T04:58:57;7.60;99.90
25556;DHT22;13447;57.174;-2.112;2023-04-23T05:01:23;7.60;99.90
25556;DHT22;13447;57.174;-2.112;2023-04-23T05:03:52;7.60;99.90
25556;DHT22;13447;57.174;-2.112;2023-04-23T05:06:19;7.60;99.90
25556;DHT22;13447;57.174;-2.112;2023-04-23T05:08:46;7.70;1.00
25556;DHT22;13447;57.174;-2.112;2023-04-23T05:11:14;7.70;1.00
25556;DHT22;13447;57.174;-2.112;2023-04-23T05:13:42;7.70;1.00
25556;DHT22;13447;57.174;-2.112;2023-04-23T05:16:10;7.80;1.00
25556;DHT22;13447;57.174;-2.112;2023-04-23T05:18:37;7.80;1.00
25556;DHT22;13447;57.174;-2.112;2023-04-23T05:21:05;7.80;1.00
25556;DHT22;13447;57.174;-2.112;2023-04-23T05:23:32;7.80;1.00
25556;DHT22;13447;57.174;-2.112;2023-04-23T05:25:59;7.80;1.00
25556;DHT22;13447;57.174;-2.112;2023-04-23T05:28:26;7.90;1.00
25556;DHT22;13447;57.174;-2.112;2023-04-23T05:30:53;7.90;1.00
25556;DHT22;13447;57.174;-2.112;2023-04-23T05:33:20;7.90;1.00
25556;DHT22;13447;57.174;-2.112;2023-04-23T05:35:47;7.90;1.00
25556;DHT22;13447;57.174;-2.112;2023-04-23T05:38:14;7.90;1.00
25556;DHT22;13447;57.174;-2.112;2023-04-23T05:40:41;7.90;1.00
25556;DHT22;13447;57.174;-2.112;2023-04-23T05:43:07;8.00;1.00
25556;DHT22;13447;57.174;-2.112;2023-04-23T05:45:34;8.00;1.00
25556;DHT22;13447;57.174;-2.112;2023-04-23T05:48:01;8.00;1.00
25556;DHT22;13447;57.174;-2.112;2023-04-23T05:50:28;8.00;1.00
25556;DHT22;13447;57.174;-2.112;2023-04-23T05:52:55;8.00;1.00
25556;DHT22;13447;57.174;-2.112;2023-04-23T05:55:21;8.00;1.00
25556;DHT22;13447;57.174;-2.112;2023-04-23T05:57:50;8.00;1.00
25556;DHT22;13447;57.174;-2.112;2023-04-23T06:00:16;8.00;1.00
25556;DHT22;13447;57.174;-2.112;2023-04-23T06:02:43;8.00;1.00
25556;DHT22;13447;57.174;-2.112;2023-04-23T06:05:10;8.00;1.00
25556;DHT22;13447;57.174;-2.112;2023-04-23T06:07:38;8.00;1.00
25556;DHT22;13447;57.174;-2.112;2023-04-23T06:10:05;8.00;1.00
25556;DHT22;13447;57.174;-2.112;2023-04-23T06:12:32;8.00;1.00
25556;DHT22;13447;57.174;-2.112;2023-04-23T06:14:59;7.90;1.00
25556;DHT22;13447;57.174;-2.112;2023-04-23T06:17:25;7.90;1.00
25556;DHT22;13447;57.174;-2.112;2023-04-23T06:19:52;7.90;1.00
25556;DHT22;13447;57.174;-2.112;2023-04-23T06:22:19;7.90;1.00
25556;DHT22;13447;57.174;-2.112;2023-04-23T06:24:46;7.90;1.00
25556;DHT22;13447;57.174;-2.112;2023-04-23T06:27:13;7.90;1.00
25556;DHT22;13447;57.174;-2.112;2023-04-23T06:29:39;8.00;1.00
25556;DHT22;13447;57.174;-2.112;2023-04-23T06:32:06;8.00;1.00
25556;DHT22;13447;57.174;-2.112;2023-04-23T06:34:33;8.00;1.00
25556;DHT22;13447;57.174;-2.112;2023-04-23T06:37:00;8.00;1.00
25556;DHT22;13447;57.174;-2.112;2023-04-23T06:39:27;8.10;1.00
25556;DHT22;13447;57.174;-2.112;2023-04-23T06:41:53;8.10;1.00
25556;DHT22;13447;57.174;-2.112;2023-04-23T06:44:21;8.20;1.00
25556;DHT22;13447;57.174;-2.112;2023-04-23T06:46:48;8.20;1.00
25556;DHT22;13447;57.174;-2.112;2023-04-23T06:49:15;8.30;1.00
25556;DHT22;13447;57.174;-2.112;2023-04-23T06:51:42;8.30;1.00
25556;DHT22;13447;57.174;-2.112;2023-04-23T06:54:09;8.40;1.00
25556;DHT22;13447;57.174;-2.112;2023-04-23T06:56:36;8.30;1.00
25556;DHT22;13447;57.174;-2.112;2023-04-23T06:59:03;8.40;1.00
25556;DHT22;13447;57.174;-2.112;2023-04-23T07:01:29;8.40;1.00
25556;DHT22;13447;57.174;-2.112;2023-04-23T07:03:56;8.40;1.00
25556;DHT22;13447;57.174;-2.112;2023-04-23T07:06:23;8.40;1.00
25556;DHT22;13447;57.174;-2.112;2023-04-23T07:08:50;8.40;1.00
25556;DHT22;13447;57.174;-2.112;2023-04-23T07:11:17;8.50;1.00
25556;DHT22;13447;57.174;-2.112;2023-04-23T07:13:43;8.50;1.00
25556;DHT22;13447;57.174;-2.112;2023-04-23T07:16:10;8.50;1.00
25556;DHT22;13447;57.174;-2.112;2023-04-23T07:18:37;8.40;1.00
25556;DHT22;13447;57.174;-2.112;2023-04-23T07:21:04;8.50;1.00
25556;DHT22;13447;57.174;-2.112;2023-04-23T07:23:31;8.40;1.00
25556;DHT22;13447;57.174;-2.112;2023-04-23T07:25:58;8.50;1.00
25556;DHT22;13447;57.174;-2.112;2023-04-23T07:28:25;8.50;1.00
25556;DHT22;13447;57.174;-2.112;2023-04-23T07:30:52;8.50;1.00
25556;DHT22;13447;57.174;-2.112;2023-04-23T07:33:19;8.40;1.00
25556;DHT22;13447;57.174;-2.112;2023-04-23T07:35:45;8.40;1.00
25556;DHT22;13447;57.174;-2.112;2023-04-23T07:38:12;8.40;1.00
25556;DHT22;13447;57.174;-2.112;2023-04-23T07:40:39;8.40;1.00
25556;DHT22;13447;57.174;-2.112;2023-04-23T07:43:06;8.40;1.00
25556;DHT22;13447;57.174;-2.112;2023-04-23T07:45:33;8.50;1.00
25556;DHT22;13447;57.174;-2.112;2023-04-23T07:47:59;8.50;1.00
25556;DHT22;13447;57.174;-2.112;2023-04-23T07:50:28;8.50;1.00
25556;DHT22;13447;57.174;-2.112;2023-04-23T07:52:54;8.50;1.00
25556;DHT22;13447;57.174;-2.112;2023-04-23T07:55:21;8.50;1.00
25556;DHT22;13447;57.174;-2.112;2023-04-23T07:57:48;8.50;1.00
25556;DHT22;13447;57.174;-2.112;2023-04-23T08:00:15;8.50;1.00
25556;DHT22;13447;57.174;-2.112;2023-04-23T08:02:42;8.50;1.00
25556;DHT22;13447;57.174;-2.112;2023-04-23T08:05:09;8.50;1.00
25556;DHT22;13447;57.174;-2.112;2023-04-23T08:07:36;8.60;1.00
25556;DHT22;13447;57.174;-2.112;2023-04-23T08:10:03;8.60;1.00
25556;DHT22;13447;57.174;-2.112;2023-04-23T08:12:32;8.60;1.00
25556;DHT22;13447;57.174;-2.112;2023-04-23T08:15:01;8.60;1.00
25556;DHT22;13447;57.174;-2.112;2023-04-23T08:17:28;8.70;1.00
25556;DHT22;13447;57.174;-2.112;2023-04-23T08:19:55;8.80;1.00
25556;DHT22;13447;57.174;-2.112;2023-04-23T08:22:22;8.80;1.00
25556;DHT22;13447;57.174;-2.112;2023-04-23T08:24:49;8.80;1.00
25556;DHT22;13447;57.174;-2.112;2023-04-23T08:27:16;8.80;1.00
25556;DHT22;13447;57.174;-2.112;2023-04-23T08:29:42;8.80;1.00
25556;DHT22;13447;57.174;-2.112;2023-04-23T08:32:09;8.80;1.00
25556;DHT22;13447;57.174;-2.112;2023-04-23T08:34:36;8.90;1.00
25556;DHT22;13447;57.174;-2.112;2023-04-23T08:37:03;8.80;1.00
25556;DHT22;13447;57.174;-2.112;2023-04-23T08:39:31;8.80;1.00
25556;DHT22;13447;57.174;-2.112;2023-04-23T08:42:01;8.80;1.00
25556;DHT22;13447;57.174;-2.112;2023-04-23T08:44:30;8.80;1.00
25556;DHT22;13447;57.174;-2.112;2023-04-23T08:46:57;8.70;1.00
25556;DHT22;13447;57.174;-2.112;2023-04-23T08:49:27;8.70;1.00
25556;DHT22;13447;57.174;-2.112;2023-04-23T08:51:58;8.70;1.00
25556;DHT22;13447;57.174;-2.112;2023-04-23T08:54:29;8.70;1.00
25556;DHT22;13447;57.174;-2.112;2023-04-23T08:56:57;8.70;1.00
25556;DHT22;13447;57.174;-2.112;2023-04-23T08:59:25;8.70;1.00
25556;DHT22;13447;57.174;-2.112;2023-04-23T09:01:52;8.70;1.00
25556;DHT22;13447;57.174;-2.112;2023-04-23T09:04:19;8.70;1.00
25556;DHT22;13447;57.174;-2.112;2023-04-23T09:06:46;8.70;1.00
25556;DHT22;13447;57.174;-2.112;2023-04-23T09:09:14;8.60;1.00
25556;DHT22;13447;57.174;-2.112;2023-04-23T09:11:41;8.70;1.00
25556;DHT22;13447;57.174;-2.112;2023-04-23T09:14:08;8.60;1.00
25556;DHT22;13447;57.174;-2.112;2023-04-23T09:16:35;8.50;1.00
25556;DHT22;13447;57.174;-2.112;2023-04-23T09:19:02;8.50;1.00
25556;DHT22;13447;57.174;-2.112;2023-04-23T09:21:29;8.40;1.00
25556;DHT22;13447;57.174;-2.112;2023-04-23T09:23:56;8.40;1.00
25556;DHT22;13447;57.174;-2.112;2023-04-23T09:26:23;8.30;1.00
25556;DHT22;13447;57.174;-2.112;2023-04-23T09:28:50;8.30;1.00
25556;DHT22;13447;57.174;-2.112;2023-04-23T09:31:20;8.20;1.00
25556;DHT22;13447;57.174;-2.112;2023-04-23T09:33:49;8.10;1.00
25556;DHT22;13447;57.174;-2.112;2023-04-23T09:36:16;8.10;1.00
25556;DHT22;13447;57.174;-2.112;2023-04-23T09:38:45;8.00;1.00
25556;DHT22;13447;57.174;-2.112;2023-04-23T09:41:22;8.00;1.00
25556;DHT22;13447;57.174;-2.112;2023-04-23T09:43:49;8.00;1.00
25556;DHT22;13447;57.174;-2.112;2023-04-23T09:46:15;8.00;1.00
25556;DHT22;13447;57.174;-2.112;2023-04-23T09:48:42;8.00;1.00
25556;DHT22;13447;57.174;-2.112;2023-04-23T09:51:13;7.90;1.00
25556;DHT22;13447;57.174;-2.112;2023-04-23T09:53:41;7.90;1.00
25556;DHT22;13447;57.174;-2.112;2023-04-23T09:56:08;7.80;1.00
25556;DHT22;13447;57.174;-2.112;2023-04-23T09:58:36;7.80;1.00
25556;DHT22;13447;57.174;-2.112;2023-04-23T10:01:06;7.80;1.00
25556;DHT22;13447;57.174;-2.112;2023-04-23T10:03:34;7.80;1.00
25556;DHT22;13447;57.174;-2.112;2023-04-23T10:06:01;7.80;1.00
25556;DHT22;13447;57.174;-2.112;2023-04-23T10:08:28;7.80;1.00
25556;DHT22;13447;57.174;-2.112;2023-04-23T10:10:56;7.80;1.00
25556;DHT22;13447;57.174;-2.112;2023-04-23T10:13:39;7.80;1.00
25556;DHT22;13447;57.174;-2.112;2023-04-23T10:16:06;7.80;1.00
25556;DHT22;13447;57.174;-2.112;2023-04-23T10:18:49;7.80;1.00
25556;DHT22;13447;57.174;-2.112;2023-04-23T10:21:16;7.80;1.00
25556;DHT22;13447;57.174;-2.112;2023-04-23T10:23:43;7.80;1.00
25556;DHT22;13447;57.174;-2.112;2023-04-23T10:26:12;7.80;1.00
25556;DHT22;13447;57.174;-2.112;2023-04-23T10:28:40;7.80;1.00
25556;DHT22;13447;57.174;-2.112;2023-04-23T10:31:10;7.90;1.00
25556;DHT22;13447;57.174;-2.112;2023-04-23T10:33:36;7.90;1.00
25556;DHT22;13447;57.174;-2.112;2023-04-23T10:36:16;7.90;1.00
25556;DHT22;13447;57.174;-2.112;2023-04-23T10:38:43;7.90;1.00
25556;DHT22;13447;57.174;-2.112;2023-04-23T10:41:23;8.00;1.00
25556;DHT22;13447;57.174;-2.112;2023-04-23T10:43:51;8.00;1.00
25556;DHT22;13447;57.174;-2.112;2023-04-23T10:46:28;8.00;1.00
25556;DHT22;13447;57.174;-2.112;2023-04-23T10:49:17;8.10;1.00
25556;DHT22;13447;57.174;-2.112;2023-04-23T10:51:46;8.20;1.00
25556;DHT22;13447;57.174;-2.112;2023-04-23T10:54:19;8.30;1.00
25556;DHT22;13447;57.174;-2.112;2023-04-23T10:56:46;8.40;1.00
25556;DHT22;13447;57.174;-2.112;2023-04-23T10:59:23;8.70;1.00
25556;DHT22;13447;57.174;-2.112;2023-04-23T11:01:50;9.10;1.00
25556;DHT22;13447;57.174;-2.112;2023-04-23T11:04:21;9.40;1.00
25556;DHT22;13447;57.174;-2.112;2023-04-23T11:06:49;9.30;1.00
25556;DHT22;13447;57.174;-2.112;2023-04-23T11:09:36;9.30;1.00
25556;DHT22;13447;57.174;-2.112;2023-04-23T11:12:07;9.30;1.00
25556;DHT22;13447;57.174;-2.112;2023-04-23T11:17:04;8.90;99.90
25556;DHT22;13447;57.174;-2.112;2023-04-23T11:19:35;8.70;99.90
25556;DHT22;13447;57.174;-2.112;2023-04-23T11:22:06;8.60;99.90
25556;DHT22;13447;57.174;-2.112;2023-04-23T11:24:41;8.50;99.90
25556;DHT22;13447;57.174;-2.112;2023-04-23T11:27:09;8.50;99.90
25556;DHT22;13447;57.174;-2.112;2023-04-23T11:29:37;8.70;1.00
25556;DHT22;13447;57.174;-2.112;2023-04-23T11:32:06;8.90;1.00
25556;DHT22;13447;57.174;-2.112;2023-04-23T11:34:36;8.90;99.90
25556;DHT22;13447;57.174;-2.112;2023-04-23T11:37:04;8.90;99.90
25556;DHT22;13447;57.174;-2.112;2023-04-23T11:39:31;8.90;99.90
25556;DHT22;13447;57.174;-2.112;2023-04-23T11:41:58;8.80;99.90
25556;DHT22;13447;57.174;-2.112;2023-04-23T11:44:28;8.90;99.90
25556;DHT22;13447;57.174;-2.112;2023-04-23T11:46:59;8.80;99.90
25556;DHT22;13447;57.174;-2.112;2023-04-23T11:49:27;8.70;99.90
25556;DHT22;13447;57.174;-2.112;2023-04-23T11:51:54;8.60;99.90
25556;DHT22;13447;57.174;-2.112;2023-04-23T11:54:25;8.60;99.90
25556;DHT22;13447;57.174;-2.112;2023-04-23T11:56:53;8.60;99.90
25556;DHT22;13447;57.174;-2.112;2023-04-23T11:59:20;8.70;99.90
25556;DHT22;13447;57.174;-2.112;2023-04-23T12:01:49;8.70;99.90
25556;DHT22;13447;57.174;-2.112;2023-04-23T12:04:18;8.70;99.90
25556;DHT22;13447;57.174;-2.112;2023-04-23T12:06:46;8.80;99.90
25556;DHT22;13447;57.174;-2.112;2023-04-23T12:09:14;8.80;99.90
25556;DHT22;13447;57.174;-2.112;2023-04-23T12:11:41;8.70;99.90
25556;DHT22;13447;57.174;-2.112;2023-04-23T12:14:08;8.60;99.90
25556;DHT22;13447;57.174;-2.112;2023-04-23T12:19:09;8.80;99.90
25556;DHT22;13447;57.174;-2.112;2023-04-23T12:21:46;8.70;99.90
25556;DHT22;13447;57.174;-2.112;2023-04-23T12:24:13;8.80;99.90
25556;DHT22;13447;57.174;-2.112;2023-04-23T12:26:41;9.00;99.90
25556;DHT22;13447;57.174;-2.112;2023-04-23T12:29:11;9.00;99.90
25556;DHT22;13447;57.174;-2.112;2023-04-23T12:31:38;9.10;99.90
25556;DHT22;13447;57.174;-2.112;2023-04-23T12:34:05;9.20;99.90
25556;DHT22;13447;57.174;-2.112;2023-04-23T12:36:34;9.30;99.90
25556;DHT22;13447;57.174;-2.112;2023-04-23T12:41:48;9.20;99.90
25556;DHT22;13447;57.174;-2.112;2023-04-23T12:44:15;9.30;99.90
25556;DHT22;13447;57.174;-2.112;2023-04-23T12:46:42;9.20;99.90
25556;DHT22;13447;57.174;-2.112;2023-04-23T12:49:09;9.30;99.90
25556;DHT22;13447;57.174;-2.112;2023-04-23T12:51:36;9.30;99.90
25556;DHT22;13447;57.174;-2.112;2023-04-23T12:54:03;9.40;99.90
25556;DHT22;13447;57.174;-2.112;2023-04-23T12:56:29;9.40;99.90
25556;DHT22;13447;57.174;-2.112;2023-04-23T12:58:56;9.50;99.90
25556;DHT22;13447;57.174;-2.112;2023-04-23T13:01:23;9.50;99.90
25556;DHT22;13447;57.174;-2.112;2023-04-23T13:03:50;9.50;99.90
25556;DHT22;13447;57.174;-2.112;2023-04-23T13:06:17;9.50;99.90
25556;DHT22;13447;57.174;-2.112;2023-04-23T13:08:44;9.40;99.90
25556;DHT22;13447;57.174;-2.112;2023-04-23T13:11:11;9.30;99.90
25556;DHT22;13447;57.174;-2.112;2023-04-23T13:13:38;9.30;99.90
25556;DHT22;13447;57.174;-2.112;2023-04-23T13:16:05;9.30;99.90
25556;DHT22;13447;57.174;-2.112;2023-04-23T13:18:31;9.20;99.90
25556;DHT22;13447;57.174;-2.112;2023-04-23T13:20:58;9.10;99.90
25556;DHT22;13447;57.174;-2.112;2023-04-23T13:23:25;9.10;99.90
25556;DHT22;13447;57.174;-2.112;2023-04-23T13:25:52;9.00;99.90
25556;DHT22;13447;57.174;-2.112;2023-04-23T13:28:18;9.00;99.90
25556;DHT22;13447;57.174;-2.112;2023-04-23T13:30:45;8.90;99.90
25556;DHT22;13447;57.174;-2.112;2023-04-23T13:33:12;8.90;99.90
25556;DHT22;13447;57.174;-2.112;2023-04-23T13:35:39;8.90;99.90
25556;DHT22;13447;57.174;-2.112;2023-04-23T13:38:06;9.00;99.90
25556;DHT22;13447;57.174;-2.112;2023-04-23T13:40:33;9.00;99.90
25556;DHT22;13447;57.174;-2.112;2023-04-23T13:43:00;9.00;99.90
25556;DHT22;13447;57.174;-2.112;2023-04-23T13:45:27;9.00;99.90
25556;DHT22;13447;57.174;-2.112;2023-04-23T13:47:54;8.80;99.90
25556;DHT22;13447;57.174;-2.112;2023-04-23T13:50:21;8.70;99.90
25556;DHT22;13447;57.174;-2.112;2023-04-23T13:52:48;8.70;99.90
25556;DHT22;13447;57.174;-2.112;2023-04-23T13:55:15;8.70;99.90
25556;DHT22;13447;57.174;-2.112;2023-04-23T13:57:42;8.80;99.90
25556;DHT22;13447;57.174;-2.112;2023-04-23T14:00:09;8.70;99.90
25556;DHT22;13447;57.174;-2.112;2023-04-23T14:02:38;8.70;99.90
25556;DHT22;13447;57.174;-2.112;2023-04-23T14:05:05;8.70;99.90
25556;DHT22;13447;57.174;-2.112;2023-04-23T14:07:34;8.60;99.90
25556;DHT22;13447;57.174;-2.112;2023-04-23T14:10:01;8.50;99.90
25556;DHT22;13447;57.174;-2.112;2023-04-23T14:12:28;8.40;99.90
25556;DHT22;13447;57.174;-2.112;2023-04-23T14:14:55;8.30;99.90
25556;DHT22;13447;57.174;-2.112;2023-04-23T14:17:22;8.30;99.90
25556;DHT22;13447;57.174;-2.112;2023-04-23T14:19:49;8.50;99.90
25556;DHT22;13447;57.174;-2.112;2023-04-23T14:22:15;8.60;99.90
25556;DHT22;13447;57.174;-2.112;2023-04-23T14:24:45;8.60;99.90
25556;DHT22;13447;57.174;-2.112;2023-04-23T14:27:15;8.70;99.90
25556;DHT22;13447;57.174;-2.112;2023-04-23T14:32:12;8.40;99.90
25556;DHT22;13447;57.174;-2.112;2023-04-23T14:34:39;8.30;99.90
25556;DHT22;13447;57.174;-2.112;2023-04-23T14:37:06;8.50;99.90
25556;DHT22;13447;57.174;-2.112;2023-04-23T14:39:33;8.50;99.90
25556;DHT22;13447;57.174;-2.112;2023-04-23T14:42:00;8.60;99.90
25556;DHT22;13447;57.174;-2.112;2023-04-23T14:44:28;8.50;99.90
25556;DHT22;13447;57.174;-2.112;2023-04-23T14:46:55;8.50;99.90
25556;DHT22;13447;57.174;-2.112;2023-04-23T14:49:22;8.50;99.90
25556;DHT22;13447;57.174;-2.112;2023-04-23T14:51:50;8.50;99.90
25556;DHT22;13447;57.174;-2.112;2023-04-23T14:56:47;8.20;99.90
25556;DHT22;13447;57.174;-2.112;2023-04-23T14:59:13;7.90;99.90
25556;DHT22;13447;57.174;-2.112;2023-04-23T15:01:40;7.90;99.90
25556;DHT22;13447;57.174;-2.112;2023-04-23T15:04:08;8.00;99.90
25556;DHT22;13447;57.174;-2.112;2023-04-23T15:06:36;7.90;99.90
25556;DHT22;13447;57.174;-2.112;2023-04-23T15:09:03;8.00;99.90
25556;DHT22;13447;57.174;-2.112;2023-04-23T15:11:30;8.00;99.90
25556;DHT22;13447;57.174;-2.112;2023-04-23T15:16:28;7.70;99.90
25556;DHT22;13447;57.174;-2.112;2023-04-23T15:19:14;7.70;99.90
25556;DHT22;13447;57.174;-2.112;2023-04-23T15:21:43;7.80;99.90
25556;DHT22;13447;57.174;-2.112;2023-04-23T15:24:10;7.80;99.90
25556;DHT22;13447;57.174;-2.112;2023-04-23T15:26:37;7.90;99.90
25556;DHT22;13447;57.174;-2.112;2023-04-23T15:29:04;7.90;99.90
25556;DHT22;13447;57.174;-2.112;2023-04-23T15:31:35;7.90;99.90
25556;DHT22;13447;57.174;-2.112;2023-04-23T15:34:01;7.90;99.90
25556;DHT22;13447;57.174;-2.112;2023-04-23T15:36:31;7.90;99.90
25556;DHT22;13447;57.174;-2.112;2023-04-23T15:38:58;7.90;99.90
25556;DHT22;13447;57.174;-2.112;2023-04-23T15:41:25;7.80;99.90
25556;DHT22;13447;57.174;-2.112;2023-04-23T15:43:52;7.90;99.90
25556;DHT22;13447;57.174;-2.112;2023-04-23T15:46:20;7.90;99.90
25556;DHT22;13447;57.174;-2.112;2023-04-23T15:48:50;7.90;99.90
25556;DHT22;13447;57.174;-2.112;2023-04-23T15:51:17;7.90;99.90
25556;DHT22;13447;57.174;-2.112;2023-04-23T15:53:43;7.90;99.90
25556;DHT22;13447;57.174;-2.112;2023-04-23T15:58:37;7.60;99.90